createdAt,value
2018-06-16T00:00:08.934Z,92.01
2018-06-16T00:01:08.928Z,91.72
2018-06-16T00:02:08.921Z,91.63
2018-06-16T00:03:08.918Z,91.63
2018-06-16T00:04:08.910Z,91.25
2018-06-16T00:05:08.904Z,92.21
2018-06-16T00:06:08.897Z,91.44
2018-06-16T00:07:08.892Z,92.01
2018-06-16T00:08:08.886Z,91.72
2018-06-16T00:09:08.885Z,91.53
2018-06-16T00:10:08.874Z,91.44
2018-06-16T00:11:08.868Z,91.44
2018-06-16T00:12:09.065Z,91.44
2018-06-16T00:13:08.857Z,91.92
2018-06-16T00:14:08.850Z,90.77
2018-06-16T00:15:08.844Z,91.15
2018-06-16T00:16:08.838Z,91.25
2018-06-16T00:17:08.833Z,91.25
2018-06-16T00:18:08.826Z,91.63
2018-06-16T00:19:08.825Z,91.34
2018-06-16T00:20:08.814Z,91.25
2018-06-16T00:21:08.808Z,91.34
2018-06-16T00:22:08.812Z,91.63
2018-06-16T00:23:08.796Z,91.63
2018-06-16T00:24:08.790Z,91.25
2018-06-16T00:25:08.784Z,90.96
2018-06-16T00:26:08.781Z,91.15
2018-06-16T00:27:08.771Z,91.25
2018-06-16T00:28:08.765Z,90.48
2018-06-16T00:29:08.766Z,91.44
2018-06-16T00:30:08.759Z,91.25
2018-06-16T00:31:08.746Z,91.25
2018-06-16T00:32:08.746Z,91.63
2018-06-16T00:33:08.742Z,91.68
2018-06-16T00:34:08.729Z,91.82
2018-06-16T00:35:08.722Z,91.25
2018-06-16T00:36:08.717Z,91.58
2018-06-16T00:37:08.711Z,92.49
2018-06-16T00:38:08.703Z,92.35
2018-06-16T00:39:08.697Z,92.63
2018-06-16T00:40:08.692Z,91.97
2018-06-16T00:41:08.696Z,92.25
2018-06-16T00:42:08.680Z,92.63
2018-06-16T00:43:08.673Z,93.21
2018-06-16T00:44:08.668Z,92.35
2018-06-16T00:45:08.661Z,92.25
2018-06-16T00:46:08.654Z,92.73
2018-06-16T00:47:08.653Z,93.40
2018-06-16T00:48:08.644Z,92.73
2018-06-16T00:49:08.636Z,92.35
2018-06-16T00:50:08.629Z,92.63
2018-06-16T00:51:08.627Z,92.54
2018-06-16T00:52:08.619Z,92.16
2018-06-16T00:53:08.617Z,92.35
2018-06-16T00:54:08.604Z,92.16
2018-06-16T00:55:08.598Z,92.25
2018-06-16T00:56:08.591Z,92.54
2018-06-16T00:57:08.589Z,92.92
2018-06-16T00:58:08.579Z,92.73
2018-06-16T00:59:08.573Z,92.83
2018-06-16T01:00:08.568Z,92.73
2018-06-16T01:01:08.572Z,92.73
2018-06-16T01:02:08.554Z,93.40
2018-06-16T01:03:08.549Z,93.30
2018-06-16T01:04:08.541Z,93.02
2018-06-16T01:05:08.535Z,92.73
2018-06-16T01:06:08.528Z,92.83
2018-06-16T01:07:08.521Z,92.63
2018-06-16T01:08:08.517Z,93.02
2018-06-16T01:09:08.509Z,92.83
2018-06-16T01:10:08.502Z,92.92
2018-06-16T01:11:08.499Z,92.73
2018-06-16T01:12:08.490Z,92.16
2018-06-16T01:13:08.491Z,92.16
2018-06-16T01:14:08.477Z,92.44
2018-06-16T01:15:08.470Z,92.16
2018-06-16T01:16:08.464Z,92.35
2018-06-16T01:17:08.460Z,91.77
2018-06-16T01:18:08.451Z,91.58
2018-06-16T01:19:08.444Z,92.16
2018-06-16T01:20:08.438Z,92.16
2018-06-16T01:21:08.433Z,92.54
2018-06-16T01:22:08.425Z,92.35
2018-06-16T01:23:08.419Z,92.16
2018-06-16T01:24:08.414Z,93.02
2018-06-16T01:25:08.407Z,93.02
2018-06-16T01:26:08.399Z,93.12
2018-06-16T01:27:08.393Z,93.02
2018-06-16T01:28:08.387Z,93.12
2018-06-16T01:29:08.381Z,93.55
2018-06-16T01:30:08.381Z,93.64
2018-06-16T01:31:08.368Z,93.26
2018-06-16T01:32:08.362Z,93.84
2018-06-16T01:33:08.356Z,93.84
2018-06-16T01:34:08.348Z,94.50
2018-06-16T01:35:08.347Z,94.50
2018-06-16T01:36:08.336Z,94.50
2018-06-16T01:37:08.333Z,94.79
2018-06-16T01:38:08.323Z,95.27
2018-06-16T01:39:08.319Z,94.50
2018-06-16T01:40:08.312Z,95.27
2018-06-16T01:41:08.305Z,95.17
2018-06-16T01:42:08.298Z,94.98
2018-06-16T01:43:08.291Z,95.17
2018-06-16T01:44:08.285Z,94.89
2018-06-16T01:45:08.279Z,94.60
2018-06-16T01:46:08.477Z,95.07
2018-06-16T01:47:08.266Z,95.56
2018-06-16T01:48:08.260Z,95.17
2018-06-16T01:49:08.254Z,95.36
2018-06-16T01:50:08.248Z,95.17
2018-06-16T01:51:08.240Z,95.27
2018-06-16T01:52:08.234Z,94.60
2018-06-16T01:53:08.227Z,95.07
2018-06-16T01:54:08.221Z,93.55
2018-06-16T01:55:08.215Z,94.31
2018-06-16T01:56:08.208Z,94.12
2018-06-16T01:57:08.204Z,94.70
2018-06-16T01:58:08.197Z,94.89
2018-06-16T01:59:08.189Z,95.17
2018-06-16T02:00:08.183Z,95.07
2018-06-16T02:01:08.184Z,94.70
2018-06-16T02:02:08.171Z,94.31
2018-06-16T02:03:08.163Z,94.70
2018-06-16T02:04:08.157Z,94.79
2018-06-16T02:05:08.152Z,95.17
2018-06-16T02:06:08.144Z,95.17
2018-06-16T02:07:08.137Z,94.79
2018-06-16T02:08:08.131Z,94.50
2018-06-16T02:09:08.124Z,93.84
2018-06-16T02:10:08.118Z,93.74
2018-06-16T02:11:08.111Z,94.12
2018-06-16T02:12:08.105Z,92.69
2018-06-16T02:13:08.099Z,93.07
2018-06-16T02:14:08.092Z,93.35
2018-06-16T02:15:08.086Z,94.02
2018-06-16T02:16:08.084Z,93.74
2018-06-16T02:17:08.076Z,94.12
2018-06-16T02:18:08.066Z,94.60
2018-06-16T02:19:08.263Z,93.64
2018-06-16T02:20:08.054Z,94.21
2018-06-16T02:21:08.047Z,94.31
2018-06-16T02:22:08.040Z,94.41
2018-06-16T02:23:08.038Z,94.50
2018-06-16T02:24:08.028Z,95.36
2018-06-16T02:25:08.022Z,95.12
2018-06-16T02:26:08.015Z,95.22
2018-06-16T02:27:08.008Z,95.03
2018-06-16T02:28:08.003Z,95.41
2018-06-16T02:29:07.995Z,95.03
2018-06-16T02:30:07.992Z,94.31
2018-06-16T02:31:07.985Z,94.31
2018-06-16T02:32:07.976Z,94.84
2018-06-16T02:33:07.970Z,94.46
2018-06-16T02:34:07.963Z,94.21
2018-06-16T02:35:07.956Z,94.36
2018-06-16T02:36:07.950Z,94.70
2018-06-16T02:37:07.944Z,94.55
2018-06-16T02:38:07.936Z,94.79
2018-06-16T02:39:07.930Z,95.22
2018-06-16T02:40:07.924Z,95.41
2018-06-16T02:41:07.918Z,95.36
2018-06-16T02:42:07.913Z,95.41
2018-06-16T02:43:07.906Z,95.51
2018-06-16T02:44:07.898Z,95.32
2018-06-16T02:45:08.095Z,96.18
2018-06-16T02:46:07.888Z,95.56
2018-06-16T02:47:07.877Z,95.22
2018-06-16T02:48:07.872Z,95.12
2018-06-16T02:49:07.865Z,94.93
2018-06-16T02:50:07.895Z,95.32
2018-06-16T02:51:07.855Z,95.22
2018-06-16T02:52:07.849Z,94.84
2018-06-16T02:53:07.839Z,94.89
2018-06-16T02:54:07.832Z,94.70
2018-06-16T02:55:07.825Z,94.21
2018-06-16T02:56:07.820Z,94.89
2018-06-16T02:57:07.813Z,94.41
2018-06-16T02:58:07.805Z,94.50
2018-06-16T02:59:07.799Z,94.12
2018-06-16T03:00:07.793Z,94.41
2018-06-16T03:01:07.787Z,94.41
2018-06-16T03:02:07.779Z,94.41
2018-06-16T03:03:07.773Z,94.70
2018-06-16T03:04:07.976Z,94.89
2018-06-16T03:05:07.761Z,95.56
2018-06-16T03:06:07.756Z,95.36
2018-06-16T03:07:07.749Z,95.46
2018-06-16T03:08:07.740Z,95.12
2018-06-16T03:09:07.736Z,96.08
2018-06-16T03:10:07.727Z,95.98
2018-06-16T03:11:07.720Z,95.70
2018-06-16T03:12:07.714Z,95.61
2018-06-16T03:13:07.709Z,95.98
2018-06-16T03:14:07.701Z,95.41
2018-06-16T03:15:07.697Z,95.03
2018-06-16T03:16:07.699Z,94.84
2018-06-16T03:17:07.688Z,94.74
2018-06-16T03:18:07.674Z,94.26
2018-06-16T03:19:07.677Z,94.84
2018-06-16T03:20:07.661Z,95.12
2018-06-16T03:21:07.654Z,94.93
2018-06-16T03:22:07.647Z,95.41
2018-06-16T03:23:07.640Z,95.12
2018-06-16T03:24:07.639Z,94.84
2018-06-16T03:25:07.627Z,94.26
2018-06-16T03:26:07.625Z,94.26
2018-06-16T03:27:07.613Z,94.17
2018-06-16T03:28:07.606Z,94.65
2018-06-16T03:29:07.600Z,94.55
2018-06-16T03:30:07.597Z,95.51
2018-06-16T03:31:07.588Z,95.12
2018-06-16T03:32:07.579Z,95.89
2018-06-16T03:33:07.575Z,95.98
2018-06-16T03:34:07.564Z,95.79
2018-06-16T03:35:07.560Z,95.98
2018-06-16T03:36:07.551Z,96.08
2018-06-16T03:37:07.545Z,95.98
2018-06-16T03:38:07.537Z,96.18
2018-06-16T03:39:07.533Z,96.47
2018-06-16T03:40:07.527Z,96.75
2018-06-16T03:41:07.517Z,96.66
2018-06-16T03:42:07.510Z,97.13
2018-06-16T03:43:07.506Z,96.94
2018-06-16T03:44:07.497Z,97.04
2018-06-16T03:45:07.492Z,96.84
2018-06-16T03:46:07.483Z,96.84
2018-06-16T03:47:07.478Z,96.75
2018-06-16T03:48:07.471Z,96.66
2018-06-16T03:49:07.469Z,96.94
2018-06-16T03:50:07.462Z,96.84
2018-06-16T03:51:07.453Z,97.33
2018-06-16T03:52:07.443Z,97.23
2018-06-16T03:53:07.436Z,97.33
2018-06-16T03:54:07.446Z,97.33
2018-06-16T03:55:07.426Z,97.23
2018-06-16T03:56:07.416Z,97.13
2018-06-16T03:57:07.410Z,97.04
2018-06-16T03:58:07.402Z,96.51
2018-06-16T03:59:07.396Z,96.37
2018-06-16T04:00:07.390Z,96.27
2018-06-16T04:01:07.383Z,96.51
2018-06-16T04:02:07.388Z,95.84
2018-06-16T04:03:07.372Z,95.46
2018-06-16T04:04:07.364Z,95.46
2018-06-16T04:05:07.357Z,95.94
2018-06-16T04:06:07.354Z,96.22
2018-06-16T04:07:07.344Z,95.75
2018-06-16T04:08:07.340Z,96.22
2018-06-16T04:09:07.332Z,95.84
2018-06-16T04:10:07.326Z,96.13
2018-06-16T04:11:07.317Z,95.46
2018-06-16T04:12:07.316Z,96.22
2018-06-16T04:13:07.304Z,95.94
2018-06-16T04:14:07.299Z,95.27
2018-06-16T04:15:07.295Z,95.65
2018-06-16T04:16:07.286Z,95.17
2018-06-16T04:17:07.279Z,96.03
2018-06-16T04:18:07.271Z,95.94
2018-06-16T04:19:07.269Z,96.22
2018-06-16T04:20:07.263Z,96.32
2018-06-16T04:21:07.253Z,96.13
2018-06-16T04:22:07.247Z,95.94
2018-06-16T04:23:07.242Z,96.42
2018-06-16T04:24:07.391Z,96.13
2018-06-16T04:25:07.228Z,96.22
2018-06-16T04:26:07.222Z,96.13
2018-06-16T04:27:07.218Z,96.03
2018-06-16T04:28:07.210Z,95.84
2018-06-16T04:29:07.209Z,96.03
2018-06-16T04:30:07.399Z,96.22
2018-06-16T04:31:07.393Z,96.47
2018-06-16T04:32:07.186Z,96.27
2018-06-16T04:33:07.183Z,95.12
2018-06-16T04:34:07.174Z,96.18
2018-06-16T04:35:07.174Z,95.89
2018-06-16T04:36:07.162Z,94.93
2018-06-16T04:37:07.155Z,95.31
2018-06-16T04:38:07.149Z,94.74
2018-06-16T04:39:07.143Z,94.65
2018-06-16T04:40:07.142Z,95.22
2018-06-16T04:41:07.133Z,94.07
2018-06-16T04:42:07.125Z,93.59
2018-06-16T04:43:07.120Z,94.55
2018-06-16T04:44:07.115Z,94.74
2018-06-16T04:45:07.109Z,94.36
2018-06-16T04:46:07.112Z,94.07
2018-06-16T04:47:07.137Z,93.88
2018-06-16T04:48:07.091Z,93.40
2018-06-16T04:49:07.091Z,93.79
2018-06-16T04:50:07.079Z,93.79
2018-06-16T04:51:07.074Z,93.69
2018-06-16T04:52:07.072Z,93.79
2018-06-16T04:53:07.063Z,93.98
2018-06-16T04:54:07.056Z,94.31
2018-06-16T04:55:07.058Z,94.31
2018-06-16T04:56:07.251Z,93.83
2018-06-16T04:57:07.041Z,93.83
2018-06-16T04:58:07.038Z,93.35
2018-06-16T04:59:07.029Z,92.87
2018-06-16T05:00:07.023Z,93.26
2018-06-16T05:01:07.017Z,92.87
2018-06-16T05:02:07.012Z,93.45
2018-06-16T05:03:07.005Z,93.45
2018-06-16T05:04:07.005Z,94.17
2018-06-16T05:05:06.995Z,93.93
2018-06-16T05:06:06.991Z,94.12
2018-06-16T05:07:06.982Z,94.79
2018-06-16T05:08:06.977Z,94.60
2018-06-16T05:09:06.972Z,94.69
2018-06-16T05:10:06.965Z,94.89
2018-06-16T05:11:06.961Z,94.40
2018-06-16T05:12:06.955Z,94.50
2018-06-16T05:13:07.158Z,94.60
2018-06-16T05:14:06.942Z,94.12
2018-06-16T05:15:06.939Z,93.83
2018-06-16T05:16:06.933Z,93.26
2018-06-16T05:17:06.934Z,92.68
2018-06-16T05:18:06.926Z,92.54
2018-06-16T05:19:06.916Z,92.25
2018-06-16T05:20:06.916Z,92.92
2018-06-16T05:21:06.909Z,92.63
2018-06-16T05:22:06.903Z,93.21
2018-06-16T05:23:06.901Z,93.59
2018-06-16T05:24:06.891Z,93.49
2018-06-16T05:25:06.888Z,93.69
2018-06-16T05:26:06.884Z,93.11
2018-06-16T05:27:06.879Z,92.92
2018-06-16T05:28:06.870Z,91.96
2018-06-16T05:29:06.869Z,92.35
2018-06-16T05:30:06.861Z,91.49
2018-06-16T05:31:06.856Z,91.63
2018-06-16T05:32:06.851Z,91.82
2018-06-16T05:33:06.847Z,91.43
2018-06-16T05:34:06.841Z,91.91
2018-06-16T05:35:06.837Z,91.43
2018-06-16T05:36:06.832Z,90.76
2018-06-16T05:37:06.828Z,90.95
2018-06-16T05:38:06.827Z,91.43
2018-06-16T05:39:06.819Z,91.67
2018-06-16T05:40:06.820Z,91.28
2018-06-16T05:41:06.815Z,90.61
2018-06-16T05:42:06.805Z,90.81
2018-06-16T05:43:06.805Z,90.52
2018-06-16T05:44:06.799Z,90.23
2018-06-16T05:45:06.794Z,90.33
2018-06-16T05:46:06.792Z,90.18
2018-06-16T05:47:06.785Z,89.70
2018-06-16T05:48:06.782Z,90.75
2018-06-16T05:49:06.783Z,89.79
2018-06-16T05:50:06.774Z,90.08
2018-06-16T05:51:06.770Z,90.56
2018-06-16T05:52:06.767Z,90.18
2018-06-16T05:53:06.771Z,89.32
2018-06-16T05:54:06.786Z,89.03
2018-06-16T05:55:06.761Z,88.49
2018-06-16T05:56:06.754Z,87.78
2018-06-16T05:57:06.752Z,88.35
2018-06-16T05:58:06.746Z,88.69
2018-06-16T05:59:06.743Z,88.35
2018-06-16T06:00:06.744Z,88.74
2018-06-16T06:01:06.741Z,89.07
2018-06-16T06:02:06.733Z,88.74
2018-06-16T06:03:06.731Z,88.35
2018-06-16T06:04:06.726Z,88.69
2018-06-16T06:05:06.723Z,88.98
2018-06-16T06:06:06.724Z,89.22
2018-06-16T06:07:06.722Z,89.12
2018-06-16T06:08:06.718Z,89.61
2018-06-16T06:09:06.710Z,89.70
2018-06-16T06:10:06.708Z,90.75
2018-06-16T06:11:06.704Z,90.56
2018-06-16T06:12:06.706Z,89.89
2018-06-16T06:13:06.718Z,90.47
2018-06-16T06:14:06.692Z,91.14
2018-06-16T06:15:06.690Z,90.52
2018-06-16T06:16:06.686Z,90.22
2018-06-16T06:17:06.683Z,89.94
2018-06-16T06:18:06.682Z,89.46
2018-06-16T06:19:06.676Z,90.03
2018-06-16T06:20:06.675Z,90.52
2018-06-16T06:21:06.671Z,89.60
2018-06-16T06:22:06.665Z,88.35
2018-06-16T06:23:06.670Z,88.49
2018-06-16T06:24:06.660Z,87.29
2018-06-16T06:25:06.657Z,87.68
2018-06-16T06:27:06.650Z,87.34
2018-06-16T06:28:06.652Z,86.09
2018-06-16T06:29:06.647Z,86.57
2018-06-16T06:30:06.640Z,86.95
2018-06-16T06:31:06.638Z,85.89
2018-06-16T06:32:06.685Z,83.78
2018-06-16T06:33:06.633Z,83.83
2018-06-16T06:34:06.629Z,83.92
2018-06-16T06:35:06.634Z,83.83
2018-06-16T06:36:06.627Z,85.17
2018-06-16T06:37:06.649Z,85.36
2018-06-16T06:38:06.621Z,84.50
2018-06-16T06:39:06.617Z,85.75
2018-06-16T06:40:06.619Z,85.46
2018-06-16T06:41:06.613Z,85.36
2018-06-16T06:42:06.614Z,83.48
2018-06-16T06:43:06.608Z,83.19
2018-06-16T06:44:06.606Z,84.06
2018-06-16T06:45:06.607Z,83.19
2018-06-16T06:46:06.606Z,82.42
2018-06-16T06:47:06.600Z,82.23
2018-06-16T06:48:06.598Z,82.23
2018-06-16T06:49:06.596Z,82.29
2018-06-16T06:50:06.594Z,83.34
2018-06-16T06:51:06.592Z,84.11
2018-06-16T06:52:06.590Z,83.83
2018-06-16T06:53:06.589Z,85.36
2018-06-16T06:54:06.587Z,84.25
2018-06-16T06:55:06.587Z,83.58
2018-06-16T06:56:06.583Z,82.90
2018-06-16T06:57:06.580Z,82.19
2018-06-16T06:58:06.581Z,82.14
2018-06-16T06:59:06.577Z,82.90
2018-06-16T07:00:06.576Z,83.39
2018-06-16T07:01:06.580Z,83.00
2018-06-16T07:02:06.574Z,83.14
2018-06-16T07:03:06.571Z,82.65
2018-06-16T07:04:06.612Z,81.88
2018-06-16T07:05:06.566Z,81.70
2018-06-16T07:06:06.564Z,82.37
2018-06-16T07:07:06.563Z,81.94
2018-06-16T07:08:06.562Z,81.94
2018-06-16T07:09:06.564Z,81.21
2018-06-16T07:10:06.558Z,81.02
2018-06-16T07:11:06.556Z,81.50
2018-06-16T07:12:06.964Z,81.12
2018-06-16T07:13:06.554Z,81.21
2018-06-16T07:14:06.552Z,80.92
2018-06-16T07:15:06.552Z,80.77
2018-06-16T07:16:06.551Z,80.00
2018-06-16T07:17:06.550Z,80.43
2018-06-16T07:18:06.549Z,80.81
2018-06-16T07:19:06.550Z,80.71
2018-06-16T07:20:06.549Z,79.21
2018-06-16T07:21:06.549Z,77.58
2018-06-16T07:22:06.550Z,76.03
2018-06-16T07:23:06.549Z,77.83
2018-06-16T07:24:06.550Z,78.40
2018-06-16T07:25:06.549Z,78.59
2018-06-16T07:26:06.548Z,78.08
2018-06-16T07:27:06.575Z,77.88
2018-06-16T07:28:06.549Z,79.08
2018-06-16T07:29:06.583Z,79.08
2018-06-16T07:30:06.549Z,78.17
2018-06-16T07:32:06.558Z,77.53
2018-06-16T07:33:06.562Z,78.79
2018-06-16T07:34:06.550Z,77.25
2018-06-16T07:35:06.552Z,77.53
2018-06-16T07:36:06.581Z,77.63
2018-06-16T07:37:06.554Z,77.06
2018-06-16T07:38:06.553Z,77.25
2018-06-16T07:39:06.554Z,77.53
2018-06-16T07:40:06.555Z,77.83
2018-06-16T07:41:06.558Z,78.79
2018-06-16T07:42:06.555Z,77.21
2018-06-16T07:43:06.763Z,78.85
2018-06-16T07:44:06.556Z,78.50
2018-06-16T07:45:06.563Z,78.11
2018-06-16T07:46:06.557Z,77.92
2018-06-16T07:47:06.560Z,76.38
2018-06-16T07:48:06.559Z,76.57
2018-06-16T07:49:06.560Z,74.16
2018-06-16T07:50:06.561Z,74.84
2018-06-16T07:51:06.562Z,75.84
2018-06-16T07:52:06.568Z,75.80
2018-06-16T07:53:06.565Z,76.23
2018-06-16T07:54:06.568Z,76.32
2018-06-16T07:55:06.770Z,75.36
2018-06-16T07:56:06.574Z,74.68
2018-06-16T07:57:06.572Z,74.78
2018-06-16T07:58:06.578Z,75.93
2018-06-16T07:59:06.574Z,76.67
2018-06-16T08:00:06.577Z,75.07
2018-06-16T08:01:06.578Z,74.58
2018-06-16T08:02:06.578Z,74.68
2018-06-16T08:03:06.580Z,74.20
2018-06-16T08:04:06.587Z,73.82
2018-06-16T08:05:06.585Z,74.58
2018-06-16T08:06:06.591Z,74.20
2018-06-16T08:07:06.591Z,73.91
2018-06-16T08:08:06.592Z,74.33
2018-06-16T08:09:06.599Z,73.79
2018-06-16T08:10:06.600Z,71.12
2018-06-16T08:11:06.603Z,71.12
2018-06-16T08:12:06.618Z,69.00
2018-06-16T08:13:06.613Z,68.43
2018-06-16T08:14:06.820Z,68.26
2018-06-16T08:15:06.627Z,68.68
2018-06-16T08:16:06.631Z,68.01
2018-06-16T08:17:06.637Z,66.69
2018-06-16T08:18:06.724Z,66.20
2018-06-16T08:19:06.651Z,65.63
2018-06-16T08:20:06.666Z,66.98
2018-06-16T08:21:06.667Z,65.37
2018-06-16T08:22:06.674Z,64.79
2018-06-16T08:23:06.683Z,65.79
2018-06-16T08:24:06.894Z,65.24
2018-06-16T08:25:06.706Z,62.27
2018-06-16T08:26:06.711Z,60.24
2018-06-16T08:27:06.719Z,60.62
2018-06-16T08:28:06.728Z,59.43
2018-06-16T08:29:06.738Z,59.79
2018-06-16T08:30:06.754Z,60.66
2018-06-16T08:31:06.759Z,61.30
2018-06-16T08:32:06.773Z,63.43
2018-06-16T08:33:06.779Z,63.43
2018-06-16T08:34:06.780Z,63.92
2018-06-16T08:35:06.789Z,64.56
2018-06-16T08:36:06.796Z,65.05
2018-06-16T08:37:06.811Z,65.43
2018-06-16T08:38:06.809Z,64.56
2018-06-16T08:39:06.814Z,66.17
2018-06-16T08:40:06.823Z,66.66
2018-06-16T08:41:06.827Z,66.82
2018-06-16T08:42:06.831Z,66.59
2018-06-16T08:43:06.840Z,67.17
2018-06-16T08:44:06.841Z,68.19
2018-06-16T08:45:06.849Z,70.32
2018-06-16T08:46:06.850Z,72.21
2018-06-16T08:47:06.852Z,72.02
2018-06-16T08:48:06.861Z,71.92
2018-06-16T08:49:06.857Z,72.50
2018-06-16T08:50:06.860Z,72.79
2018-06-16T08:51:06.867Z,72.02
2018-06-16T08:52:07.071Z,72.99
2018-06-16T08:53:06.866Z,73.72
2018-06-16T08:54:06.873Z,73.62
2018-06-16T08:55:06.869Z,74.10
2018-06-16T08:56:06.873Z,73.85
2018-06-16T08:57:06.874Z,72.69
2018-06-16T08:58:06.880Z,72.25
2018-06-16T08:59:06.878Z,72.19
2018-06-16T09:00:06.886Z,69.32
2018-06-16T09:01:06.885Z,66.75
2018-06-16T09:02:06.889Z,67.04
2018-06-16T09:03:06.894Z,66.30
2018-06-16T09:04:06.899Z,64.27
2018-06-16T09:05:06.906Z,64.66
2018-06-16T09:06:06.913Z,66.50
2018-06-16T09:07:06.917Z,64.59
2018-06-16T09:08:06.924Z,62.56
2018-06-16T09:09:06.934Z,61.63
2018-06-16T09:10:06.939Z,60.17
2018-06-16T09:11:06.947Z,59.98
2018-06-16T09:12:06.955Z,60.01
2018-06-16T09:13:06.964Z,59.72
2018-06-16T09:14:06.972Z,60.62
2018-06-16T09:15:06.981Z,60.33
2018-06-16T09:16:07.194Z,59.84
2018-06-16T09:17:07.005Z,59.94
2018-06-16T09:18:07.012Z,59.88
2018-06-16T09:19:07.023Z,58.74
2018-06-16T09:20:07.238Z,56.29
2018-06-16T09:21:07.045Z,57.84
2018-06-16T09:22:07.056Z,58.42
2018-06-16T09:23:07.066Z,56.20
2018-06-16T09:24:07.081Z,57.94
2018-06-16T09:25:07.099Z,57.65
2018-06-16T09:26:07.106Z,59.71
2018-06-16T09:27:07.112Z,57.48
2018-06-16T09:28:07.186Z,55.93
2018-06-16T09:29:07.137Z,56.32
2018-06-16T09:30:07.147Z,55.57
2018-06-16T09:31:07.160Z,53.24
2018-06-16T09:33:07.185Z,54.11
2018-06-16T09:34:07.197Z,55.41
2018-06-16T09:35:07.214Z,55.87
2018-06-16T09:36:07.270Z,55.18
2018-06-16T09:37:07.238Z,55.35
2018-06-16T09:38:07.245Z,56.81
2018-06-16T09:39:07.263Z,57.09
2018-06-16T09:40:07.269Z,56.00
2018-06-16T09:41:07.281Z,56.16
2018-06-16T09:42:07.354Z,58.01
2018-06-16T09:43:07.310Z,58.88
2018-06-16T09:44:07.318Z,58.47
2018-06-16T09:45:07.322Z,59.63
2018-06-16T09:46:07.327Z,59.33
2018-06-16T09:47:07.338Z,57.69
2018-06-16T09:48:07.407Z,57.18
2018-06-16T09:49:07.353Z,57.63
2018-06-16T09:50:07.360Z,57.41
2018-06-16T09:51:07.370Z,59.51
2018-06-16T09:52:07.380Z,60.47
2018-06-16T09:53:07.386Z,61.86
2018-06-16T09:54:07.388Z,60.41
2018-06-16T09:55:07.395Z,63.34
2018-06-16T09:56:07.406Z,59.98
2018-06-16T09:57:07.408Z,59.28
2018-06-16T09:58:07.413Z,59.86
2018-06-16T09:59:07.419Z,59.47
2018-06-16T10:00:07.425Z,59.89
2018-06-16T10:01:07.432Z,61.24
2018-06-16T10:02:07.436Z,60.01
2018-06-16T10:03:07.443Z,58.30
2018-06-16T10:04:07.448Z,57.91
2018-06-16T10:05:07.467Z,56.26
2018-06-16T10:06:07.464Z,55.49
2018-06-16T10:07:07.468Z,56.46
2018-06-16T10:08:07.477Z,55.98
2018-06-16T10:09:07.482Z,56.39
2018-06-16T10:10:07.691Z,55.06
2018-06-16T10:11:07.497Z,55.47
2018-06-16T10:12:07.510Z,53.73
2018-06-16T10:13:07.514Z,52.98
2018-06-16T10:14:07.522Z,53.88
2018-06-16T10:15:07.531Z,53.00
2018-06-16T10:16:07.544Z,53.03
2018-06-16T10:17:07.551Z,52.03
2018-06-16T10:18:07.562Z,54.17
2018-06-16T10:19:07.570Z,54.75
2018-06-16T10:20:07.580Z,53.20
2018-06-16T10:21:07.593Z,53.56
2018-06-16T10:22:07.601Z,53.37
2018-06-16T10:23:07.609Z,54.31
2018-06-16T10:24:07.619Z,53.75
2018-06-16T10:25:07.629Z,55.50
2018-06-16T10:26:07.637Z,54.34
2018-06-16T10:27:07.647Z,53.20
2018-06-16T10:28:07.665Z,54.07
2018-06-16T10:29:07.671Z,51.93
2018-06-16T10:30:07.677Z,52.74
2018-06-16T10:31:07.692Z,52.15
2018-06-16T10:32:07.700Z,52.96
2018-06-16T10:33:07.714Z,53.25
2018-06-16T10:34:07.722Z,50.73
2018-06-16T10:35:07.733Z,51.16
2018-06-16T10:36:07.745Z,52.13
2018-06-16T10:37:07.757Z,52.52
2018-06-16T10:38:07.765Z,53.00
2018-06-16T10:39:07.775Z,54.63
2018-06-16T10:40:07.788Z,54.11
2018-06-16T10:41:07.796Z,53.44
2018-06-16T10:42:07.806Z,52.83
2018-06-16T10:43:07.812Z,54.28
2018-06-16T10:44:07.822Z,53.89
2018-06-16T10:45:07.833Z,55.90
2018-06-16T10:46:07.837Z,55.32
2018-06-16T10:47:07.850Z,56.46
2018-06-16T10:48:07.854Z,55.98
2018-06-16T10:49:07.865Z,57.20
2018-06-16T10:50:07.868Z,56.62
2018-06-16T10:51:07.875Z,57.14
2018-06-16T10:52:07.879Z,55.42
2018-06-16T10:53:07.890Z,59.33
2018-06-16T10:54:07.893Z,56.09
2018-06-16T10:55:07.904Z,54.10
2018-06-16T10:56:07.912Z,54.13
2018-06-16T10:57:07.921Z,53.93
2018-06-16T10:58:07.932Z,53.74
2018-06-16T10:59:07.939Z,52.45
2018-06-16T11:00:07.949Z,51.26
2018-06-16T11:01:07.957Z,53.17
2018-06-16T11:02:07.966Z,54.60
2018-06-16T11:03:07.977Z,54.26
2018-06-16T11:04:07.979Z,55.32
2018-06-16T11:05:07.994Z,55.88
2018-06-16T11:06:07.997Z,57.33
2018-06-16T11:07:07.998Z,56.07
2018-06-16T11:08:08.005Z,57.04
2018-06-16T11:09:08.010Z,56.72
2018-06-16T11:10:08.015Z,57.30
2018-06-16T11:11:08.023Z,57.86
2018-06-16T11:12:08.024Z,58.70
2018-06-16T11:13:08.029Z,59.28
2018-06-16T11:14:08.031Z,60.34
2018-06-16T11:15:08.034Z,60.89
2018-06-16T11:16:08.038Z,59.99
2018-06-16T11:17:08.040Z,61.15
2018-06-16T11:18:08.248Z,62.02
2018-06-16T11:19:08.067Z,62.21
2018-06-16T11:20:08.048Z,62.12
2018-06-16T11:21:08.054Z,61.37
2018-06-16T11:22:08.050Z,62.53
2018-06-16T11:23:08.056Z,60.60
2018-06-16T11:24:08.058Z,61.82
2018-06-16T11:25:08.058Z,60.30
2018-06-16T11:26:08.063Z,58.62
2018-06-16T11:27:08.066Z,57.78
2018-06-16T11:28:08.072Z,56.35
2018-06-16T11:29:08.081Z,55.38
2018-06-16T11:30:08.083Z,57.15
2018-06-16T11:31:08.094Z,55.21
2018-06-16T11:32:08.097Z,54.50
2018-06-16T11:33:08.107Z,54.50
2018-06-16T11:34:08.114Z,54.60
2018-06-16T11:35:08.119Z,55.18
2018-06-16T11:36:08.126Z,55.41
2018-06-16T11:37:08.135Z,55.89
2018-06-16T11:38:08.143Z,56.64
2018-06-16T11:39:08.150Z,55.18
2018-06-16T11:40:08.155Z,54.09
2018-06-16T11:41:08.167Z,55.16
2018-06-16T11:42:08.169Z,54.58
2018-06-16T11:43:08.177Z,55.16
2018-06-16T11:44:08.185Z,56.54
2018-06-16T11:45:08.196Z,56.15
2018-06-16T11:47:08.211Z,56.74
2018-06-16T11:48:08.216Z,55.64
2018-06-16T11:49:08.226Z,56.13
2018-06-16T11:50:08.232Z,56.20
2018-06-16T11:51:08.233Z,55.00
2018-06-16T11:52:08.239Z,58.30
2018-06-16T11:53:08.245Z,57.45
2018-06-16T11:54:08.249Z,59.61
2018-06-16T11:55:08.257Z,58.70
2018-06-16T11:56:08.264Z,55.50
2018-06-16T11:57:08.273Z,54.27
2018-06-16T11:58:08.274Z,54.27
2018-06-16T11:59:08.281Z,55.07
2018-06-16T12:00:08.293Z,54.78
2018-06-16T12:01:08.297Z,54.93
2018-06-16T12:02:08.304Z,53.86
2018-06-16T12:03:08.340Z,53.08
2018-06-16T12:04:08.318Z,49.76
2018-06-16T12:05:08.331Z,51.31
2018-06-16T12:06:08.337Z,52.96
2018-06-16T12:07:08.343Z,51.43
2018-06-16T12:08:08.352Z,49.99
2018-06-16T12:09:08.367Z,54.18
2018-06-16T12:10:08.371Z,52.82
2018-06-16T12:11:08.380Z,53.01
2018-06-16T12:12:08.391Z,51.26
2018-06-16T12:13:08.604Z,52.62
2018-06-16T12:14:08.411Z,50.58
2018-06-16T12:15:08.422Z,48.51
2018-06-16T12:16:08.432Z,51.62
2018-06-16T12:17:08.445Z,49.41
2018-06-16T12:18:08.456Z,48.93
2018-06-16T12:19:08.468Z,51.58
2018-06-16T12:20:08.475Z,50.14
2018-06-16T12:21:08.486Z,48.39
2018-06-16T12:22:08.497Z,50.53
2018-06-16T12:23:08.712Z,47.32
2018-06-16T12:24:08.521Z,51.34
2018-06-16T12:25:08.533Z,49.90
2018-06-16T12:26:08.547Z,46.04
2018-06-16T12:27:08.761Z,46.83
2018-06-16T12:28:08.570Z,44.21
2018-06-16T12:29:08.583Z,46.56
2018-06-16T12:30:08.601Z,48.29
2018-06-16T12:31:08.609Z,46.80
2018-06-16T12:32:08.620Z,47.46
2018-06-16T12:33:08.632Z,47.03
2018-06-16T12:34:08.642Z,46.51
2018-06-16T12:35:08.654Z,48.15
2018-06-16T12:36:08.664Z,49.68
2018-06-16T12:37:08.684Z,49.22
2018-06-16T12:38:08.684Z,47.05
2018-06-16T12:39:08.694Z,48.41
2018-06-16T12:40:08.706Z,49.07
2018-06-16T12:41:08.715Z,49.22
2018-06-16T12:42:08.722Z,52.52
2018-06-16T12:43:08.733Z,52.55
2018-06-16T12:44:08.740Z,52.06
2018-06-16T12:45:08.749Z,53.59
2018-06-16T12:46:08.757Z,52.06
2018-06-16T12:47:08.765Z,52.19
2018-06-16T12:48:08.780Z,49.10
2018-06-16T12:49:08.784Z,48.46
2018-06-16T12:50:08.792Z,48.66
2018-06-16T12:51:08.802Z,47.30
2018-06-16T12:52:08.811Z,48.75
2018-06-16T12:53:08.820Z,47.20
2018-06-16T12:54:08.837Z,47.69
2018-06-16T12:55:08.842Z,48.75
2018-06-16T12:56:08.852Z,46.03